Stunt Ranch Reserve, Santa Monica Mtns, California Weather observations

Data are for 10 minute period ending at time listed.
 Day   Time   Solar   Ave.   Ave.  Ave.  Vector  Max.   Baro.   Total    
  of    of     Rad.   Air    Rel.  Wind   Wind   Wind  Press.  Precip.   
Year   Day            Temp.  Hum.  Speed  Dir.   Gust                    
2014   (PST)  Kw/m2    F      %     mph   deg.    mph    mb.     in.     
-------------------------------------------------------------------------
 258   15:10   0.53  103.7    18    4.4   308    14.4   962.8    0.00 
 258   15:20   0.50  103.0    18    3.5   303    12.8   962.8    0.00 
 258   15:30   0.47  102.7    19    4.4   305    14.2   962.8    0.00 
 258   15:40   0.43  101.9    19    4.4   303    12.8   963.1    0.00 
 258   15:50   0.40  101.6    19    4.2   306    10.4   963.1    0.00 
 258   16:00   0.36  101.7    19    2.0   304     8.1   963.1    0.00 
 258   16:10   0.33  101.3    19    3.2   304     8.9   963.1    0.00 
 258   16:20   0.30  100.4    20    3.5   297    12.3   963.1    0.00 
 258   16:30   0.27   99.3    20    2.4   300     9.5   963.1    0.00 
 258   16:40   0.23   98.9    21    3.2   311     9.3   963.1    0.00 
 258   16:50   0.20   97.9    21    2.8   307    11.8   963.1    0.00 
 258   17:00   0.16   97.1    21    4.7   312    11.8   963.1    0.00 
 258   17:10   0.13   96.3    22    2.7   316    10.2   963.4    0.00 
 258   17:20   0.10   95.0    24    3.8   313    11.0   963.4    0.00 
 258   17:30   0.09   93.7    25    1.8   311     8.0   963.4    0.00 
 258   17:40   0.05   92.1    26    1.4   316     7.5   963.4    0.00 
 258   17:50   0.01   90.7    28    0.8   302     4.8   963.4    0.00 
 258   18:00   0.01   89.3    30    0.1   266     1.0   963.1    0.00 
 258   18:10   0.00   88.2    30    0.3   250     2.2   963.1    0.00 
 258   18:20   0.00   87.7    31    0.4    10     2.6   963.1    0.00 
 258   18:30   0.00   87.0    32    0.5   160     1.8   963.1    0.00 
 258   18:40   0.00   87.0    31    1.1   241     4.0   962.8    0.00 
 258   18:50   0.00   86.6    32    0.8   324     4.2   962.8    0.00 
 258   19:00   0.00   86.9    32    1.2     7     2.9   962.8    0.00 
 258   19:10   0.00   86.5    32    0.2   184     1.8   963.1    0.00 
 258   19:20   0.00   86.1    33    0.2    66     1.2   963.1    0.00 
 258   19:30   0.00   85.7    33    0.7   164     1.8   963.1    0.00 
 258   19:40   0.00   85.7    33    0.9   107     2.0   963.1    0.00 
 258   19:50   0.00   85.3    33    1.2   166     3.0   963.1    0.00 
 258   20:00   0.00   85.2    33    0.2   318     1.0   963.1    0.00 
 258   20:10   0.00   85.7    32    1.9   219     3.9   963.1    0.00 
 258   20:20   0.00   86.3    31    3.9   219     8.2   963.1    0.00 
 258   20:30   0.00   86.6    30    4.2   217     7.7   963.4    0.00 
 258   20:40   0.00   86.8    30    4.6   211     7.7   963.4    0.00 
 258   20:50   0.00   86.6    30    4.1   211     7.5   963.1    0.00 
 258   21:00   0.00   87.5    29    3.4   221     7.8   963.4    0.00 
 258   21:10   0.00   87.4    29    3.9   210     6.8   963.4    0.00 
 258   21:20   0.00   87.2    29    3.9   221     7.7   963.4    0.00 
 258   21:30   0.00   87.6    29    2.9   210     5.0   963.4    0.00 
 258   21:40   0.00   86.9    30    3.2   201     5.6   963.4    0.00 
 258   21:50   0.00   86.8    30    2.9   215     5.2   963.8    0.00 
 258   22:00   0.00   86.5    30    1.0   243     4.0   963.8    0.00 
 258   22:10   0.00   85.5    31    3.1   207     5.2   963.4    0.00 
 258   22:20   0.00   85.8    31    4.0   214     5.1   963.4    0.00 
 258   22:30   0.00   85.7    31    3.7   221     5.4   963.4    0.00 
 258   22:40   0.00   86.0    30    3.7   206     5.3   963.4    0.00 
 258   22:50   0.00   85.9    30    3.6   216     5.8   963.4    0.00 
 258   23:00   0.00   85.4    31    2.9   222     4.1   963.4    0.00 
 258   23:10   0.00   85.3    31    1.5   208     2.6   963.4    0.00 
 258   23:20   0.00   83.4    34    2.6   145     4.2   963.4    0.00 
 258   23:30   0.00   84.4    32    1.8   150     2.6   963.4    0.00 
 258   23:40   0.00   85.2    31    1.5   134     2.3   963.4    0.00 
 258   23:50   0.00   85.6    30    1.5   128     2.4   963.4    0.00 
 259    0:00   0.00   85.3    31    1.6   141     2.6   963.1    0.00 
 259    0:10   0.00   85.2    31    2.2   137     3.3   963.1    0.00 
 259    0:20   0.00   84.7    31    1.3   154     3.4   963.4    0.00 
 259    0:30   0.00   84.7    31    0.5   340     2.0   963.1    0.00 
 259    0:40   0.00   83.5    33    0.2    70     1.4   963.4    0.00 
 259    0:50   0.00   82.5    34    0.9   143     1.7   963.4    0.00 
 259    1:00   0.00   83.9    32    0.1   160     1.2   963.4    0.00 
 259    1:10   0.00   83.8    32    0.5   266     1.3   963.1    0.00 
 259    1:20   0.00   83.6    32    0.5   133     1.3   963.1    0.00 
 259    1:30   0.00   83.2    33    0.6   168     2.3   963.1    0.00 
 259    1:40   0.00   82.8    33    0.7    23     2.4   963.1    0.00 
 259    1:50   0.00   82.2    34    0.5   124     1.5   963.1    0.00 
 259    2:00   0.00   82.1    34    1.0    89     2.5   963.1    0.00 
 259    2:10   0.00   81.4    35    0.4   293     1.5   963.1    0.00 
 259    2:20   0.00   80.7    36    0.6   122     1.7   962.8    0.00 
 259    2:30   0.00   80.6    36    0.0   193     0.7   962.8    0.00 
 259    2:40   0.00   81.1    36    0.0   252     0.8   962.8    0.00 
 259    2:50   0.00   81.4    35    0.3   252     1.2   962.8    0.00 
 259    3:00   0.00   81.7    35    0.1   168     0.9   962.8    0.00 
 259    3:10   0.00   81.5    36    0.3   184     2.1   962.8    0.00 
 259    3:20   0.00   80.6    36    0.6   249     1.4   962.8    0.00 
 259    3:30   0.00   80.2    37    0.5    15     1.3   962.8    0.00 
 259    3:40   0.00   80.4    36    0.7     1     1.8   962.8    0.00 
 259    3:50   0.00   80.4    36    1.1   162     3.7   962.8    0.00 
 259    4:00   0.00   81.1    35    0.5   127     1.8   962.8    0.00 
 259    4:10   0.00   82.1    35    0.8   195     1.9   962.8    0.00 
 259    4:20   0.00   82.6    34    0.8   231     1.4   962.8    0.00 
 259    4:30   0.00   81.7    36    1.4   217     2.5   962.8    0.00 
 259    4:40   0.00   82.3    34    0.5   251     1.7   962.8    0.00 
 259    4:50   0.00   82.5    34    0.1   224     0.7   962.8    0.00 
 259    5:00   0.00   82.7    34    0.0   185     1.5   962.8    0.00 
 259    5:10   0.00   82.4    35    0.9   186     2.9   962.8    0.00 
 259    5:20   0.00   81.9    35    0.3   178     1.2   962.8    0.00 
 259    5:30   0.00   82.3    34    0.1   189     0.9   962.8    0.00 
 259    5:40   0.00   82.4    34    0.5   260     1.8   963.1    0.00 
 259    5:50   0.01   81.5    35    0.6    36     1.5   963.1    0.00 
 259    6:00   0.01   81.0    36    0.1    59     0.9   963.1    0.00 
 259    6:10   0.01   80.2    37    0.9   148     2.0   963.1    0.00 
 259    6:20   0.03   80.0    38    0.4    34     1.8   963.1    0.00 
 259    6:30   0.03   79.7    38    0.4   250     1.4   963.1    0.00 
 259    6:40   0.10   80.4    37    1.0   151     1.7   963.4    0.00 
 259    6:50   0.15   84.2    33    0.2   339     0.9   963.1    0.00 
 259    7:00   0.18   86.3    31    0.2    90     1.3   963.4    0.00 
 259    7:10   0.22   85.8    32    1.1   106     1.8   963.4    0.00 
 259    7:20   0.25   87.6    30    0.9    77     2.3   963.4    0.00 
 259    7:30   0.29   88.9    29    1.4    94     2.3   963.4    0.00 
 259    7:40   0.32   89.5    28    1.9    83     2.9   963.4    0.00 
 259    7:50   0.35   91.0    26    1.5    42     2.6   963.8    0.00 
 259    8:00   0.39   94.4    23    1.0   293     1.9   963.8    0.00 
 259    8:10   0.42   96.2    22    1.1   293     2.0   964.1    0.00 
 259    8:20   0.46   96.8    21    1.2   296     2.0   964.1    0.00 
 259    8:30   0.49   97.3    21    1.8   292     3.1   964.1    0.00 
 259    8:40   0.52   98.0    21    3.3   282     5.1   964.1    0.00 
 259    8:50   0.55   98.7    20    2.1   293     5.1   964.4    0.00 
 259    9:00   0.57  100.1    19    2.5   293     5.6   964.4    0.00 
 259    9:10   0.60  100.7    19    3.2   289     6.4   964.4    0.00 
 259    9:20   0.63  101.0    19    3.4   282     7.0   964.1    0.00 
 259    9:30   0.65  101.5    19    3.5   275     6.4   964.1    0.00 
 259    9:40   0.68  101.6    19    3.3   283     6.6   964.1    0.00 
 259    9:50   0.70  101.9    19    3.4   273     6.4   964.1    0.00 
 259   10:00   0.72  102.0    19    2.9   287     6.1   964.1    0.00 
 259   10:10   0.74  103.0    19    2.6   270     7.4   963.8    0.00 
 259   10:20   0.76  104.7    18    3.3   284     8.8   963.8    0.00 
 259   10:30   0.77  105.6    18    3.6   283     8.5   963.8    0.00 
 259   10:40   0.78  106.3    18    3.8   283     9.6   963.4    0.00 
 259   10:50   0.80  105.7    18    3.7   289     8.5   963.4    0.00 
 259   11:00   0.81  106.2    18    3.8   290    10.4   963.1    0.00 
 259   11:10   0.82  106.2    19    4.7   284    11.4   963.1    0.00 
 259   11:20   0.82  106.2    19    3.3   286    10.7   963.1    0.00 
 259   11:30   0.83  106.5    19    3.2   293    10.4   962.8    0.00 
 259   11:40   0.83  107.2    19    2.6   287     7.0   962.8    0.00 
 259   11:50   0.83  105.9    20    3.1   250     9.6   962.8    0.00 
 259   12:00   0.83  105.1    20    2.6   213     6.8   962.8    0.00 
 259   12:10   0.83  103.9    20    5.6   161    13.5   962.8    0.00 
 259   12:20   0.83  101.9    22    8.9   153    18.6   962.8    0.00 
 259   12:30   0.82  101.5    22    8.8   150    16.6   962.8    0.00 
 259   12:40   0.82  101.8    21    5.6   149    13.3   962.4    0.00 
 259   12:50   0.77  102.8    21    2.5   101     8.8   962.4    0.00 
 259   13:00   0.80  103.2    20    2.3   133     7.2   962.4    0.00 
 259   13:10   0.79  105.2    20    2.6   247     8.9   962.1    0.00 
 259   13:20   0.77  105.5    20    1.7   269     7.5   962.1    0.00 
 259   13:30   0.76  106.8    18    1.6   256     9.6   961.7    0.00 
 259   13:40   0.74  106.1    18    3.4   285    14.0   961.7    0.00 
 259   13:50   0.72  102.9    19    7.7   264    15.6   961.4    0.00 
 259   14:00   0.70  104.4    18    2.0   304     6.2   961.4    0.00 
 259   14:10   0.68  107.3    17    2.0   317     6.6   961.4    0.00 
 259   14:20   0.66  107.7    16    1.6   257     6.2   961.1    0.00 
 259   14:30   0.63  106.7    17    1.9   336     8.9   961.1    0.00 
 259   14:40   0.60  106.0    17    2.6   261     8.0   960.7    0.00 
 259   14:50   0.58  105.5    17    2.8   270    10.5   960.7    0.00 
 259   15:00   0.55  104.9    17    4.1   262    11.6   960.7    0.00 

Return to Stunt Ranch Reserve graphs page.


Western Regional Climate Center,wrcc@dri.edu